createdAt,value
2022-07-29T00:01:50.008Z,99018.06
2022-07-29T00:04:16.980Z,99026.06
2022-07-29T00:06:43.812Z,99019.16
2022-07-29T00:09:10.399Z,99018.16
2022-07-29T00:11:37.027Z,99019.03
2022-07-29T00:14:03.704Z,99022.63
2022-07-29T00:16:30.422Z,99022.59
2022-07-29T00:18:59.547Z,99020.72
2022-07-29T00:21:28.521Z,99016.19
2022-07-29T00:23:54.990Z,99016.88
2022-07-29T00:26:21.458Z,99014.38
2022-07-29T00:28:47.925Z,99009.91
2022-07-29T00:31:14.551Z,99009.88
2022-07-29T00:33:41.023Z,99008.09
2022-07-29T00:36:07.559Z,99002.00
2022-07-29T00:38:37.000Z,99016.72
2022-07-29T00:41:03.561Z,99005.50
2022-07-29T00:43:30.068Z,99005.53
2022-07-29T00:45:56.605Z,99010.75
2022-07-29T00:48:23.086Z,99006.38
2022-07-29T00:50:50.637Z,99010.78
2022-07-29T00:53:17.286Z,99003.59
2022-07-29T00:55:43.901Z,99008.81
2022-07-29T00:58:13.202Z,99012.16
2022-07-29T01:00:41.752Z,99009.72
2022-07-29T01:03:08.935Z,99010.56
2022-07-29T01:05:49.632Z,99008.63
2022-07-29T01:08:18.338Z,99014.03
2022-07-29T01:10:45.173Z,99012.19
2022-07-29T01:13:11.969Z,99013.25
2022-07-29T01:15:49.233Z,99008.53
2022-07-29T01:18:22.177Z,99010.66
2022-07-29T01:21:16.881Z,99012.94
2022-07-29T01:24:10.718Z,99009.34
2022-07-29T01:26:49.162Z,99005.72
2022-07-29T01:29:19.038Z,99001.66
2022-07-29T01:31:58.967Z,99002.22
2022-07-29T01:34:33.605Z,98995.56
2022-07-29T01:37:16.817Z,98993.81
2022-07-29T01:39:44.620Z,98997.38
2022-07-29T01:42:14.172Z,98991.78
2022-07-29T01:44:51.676Z,98989.28
2022-07-29T01:47:32.233Z,98997.19
2022-07-29T01:49:59.631Z,98993.81
2022-07-29T01:52:43.298Z,98995.38
2022-07-29T01:55:14.588Z,98991.78
2022-07-29T01:57:44.255Z,98988.41
2022-07-29T02:00:11.837Z,98995.13
2022-07-29T02:02:40.608Z,98994.94
2022-07-29T02:05:09.356Z,98996.53
2022-07-29T02:07:37.431Z,98996.53
2022-07-29T02:10:05.098Z,98995.72
2022-07-29T02:12:32.541Z,98995.88
2022-07-29T02:15:01.099Z,98992.31
2022-07-29T02:17:32.013Z,98996.47
2022-07-29T02:20:01.042Z,99003.56
2022-07-29T02:22:29.799Z,99003.38
2022-07-29T02:24:56.939Z,98995.78
2022-07-29T02:27:24.843Z,99000.13
2022-07-29T02:29:52.329Z,99003.44
2022-07-29T02:32:19.100Z,98999.72
2022-07-29T02:34:45.836Z,99002.34
2022-07-29T02:37:13.040Z,99002.31
2022-07-29T02:39:42.183Z,99002.38
2022-07-29T02:42:12.733Z,99003.22
2022-07-29T02:44:39.261Z,99004.09
2022-07-29T02:47:18.669Z,99003.81
2022-07-29T02:49:53.441Z,98994.22
2022-07-29T02:52:24.285Z,99000.25
2022-07-29T02:54:59.691Z,99005.28
2022-07-29T02:57:54.733Z,99000.31
2022-07-29T03:00:23.475Z,99009.38
2022-07-29T03:02:52.520Z,99012.19
2022-07-29T03:05:20.978Z,99011.38
2022-07-29T03:08:01.487Z,99014.66
2022-07-29T03:10:28.361Z,99026.81
2022-07-29T03:12:56.597Z,99031.88
2022-07-29T03:15:23.224Z,99033.16
2022-07-29T03:17:52.703Z,99025.84
2022-07-29T03:20:19.631Z,99025.09
2022-07-29T03:22:48.003Z,99029.44
2022-07-29T03:25:19.063Z,99027.09
2022-07-29T03:27:45.876Z,99026.63
2022-07-29T03:30:18.314Z,99026.59
2022-07-29T03:32:48.565Z,99031.16
2022-07-29T03:35:17.432Z,99023.94
2022-07-29T03:37:44.834Z,99023.00
2022-07-29T03:40:13.696Z,99027.53
2022-07-29T03:42:41.561Z,99019.03
2022-07-29T03:45:11.042Z,99019.94
2022-07-29T03:47:49.612Z,99024.16
2022-07-29T03:50:18.068Z,99025.06
2022-07-29T03:52:45.416Z,99023.06
2022-07-29T03:55:12.151Z,99030.75
2022-07-29T03:57:39.295Z,99026.34
2022-07-29T04:00:06.816Z,99037.00
2022-07-29T04:02:33.562Z,99035.59
2022-07-29T04:05:00.846Z,99028.13
2022-07-29T04:07:27.438Z,99031.81
2022-07-29T04:09:53.966Z,99033.66
2022-07-29T04:12:22.150Z,99036.59
2022-07-29T04:14:49.629Z,99037.06
2022-07-29T04:17:16.082Z,99039.66
2022-07-29T04:19:42.560Z,99037.84
2022-07-29T04:22:09.005Z,99036.03
2022-07-29T04:24:35.605Z,99042.31
2022-07-29T04:27:02.070Z,99057.16
2022-07-29T04:29:28.568Z,99064.06
2022-07-29T04:31:55.061Z,99050.47
2022-07-29T04:34:21.525Z,99046.91
2022-07-29T04:36:47.948Z,99050.28
2022-07-29T04:39:18.082Z,99053.25
2022-07-29T04:41:48.154Z,99057.75
2022-07-29T04:44:14.841Z,99056.09
2022-07-29T04:46:41.461Z,99060.34
2022-07-29T04:49:08.193Z,99061.22
2022-07-29T04:51:35.345Z,99066.34
2022-07-29T04:54:01.988Z,99065.56
2022-07-29T04:56:28.626Z,99062.75
2022-07-29T04:58:55.145Z,99063.28
2022-07-29T05:01:21.680Z,99068.16
2022-07-29T05:03:48.256Z,99068.81
2022-07-29T05:06:14.725Z,99066.75
2022-07-29T05:08:42.042Z,99065.28
2022-07-29T05:11:12.443Z,99063.63
2022-07-29T05:13:45.898Z,99058.13
2022-07-29T05:16:14.207Z,99059.88
2022-07-29T05:18:40.876Z,99064.63
2022-07-29T05:21:07.322Z,99061.44
2022-07-29T05:23:33.841Z,99062.56
2022-07-29T05:26:00.378Z,99070.31
2022-07-29T05:28:26.832Z,99075.47
2022-07-29T05:30:53.376Z,99075.44
2022-07-29T05:33:35.176Z,99076.59
2022-07-29T05:36:08.185Z,99074.91
2022-07-29T05:38:38.255Z,99071.88
2022-07-29T05:41:06.047Z,99075.97
2022-07-29T05:43:32.976Z,99081.47
2022-07-29T05:45:59.607Z,99068.84
2022-07-29T05:48:26.318Z,99071.59
2022-07-29T05:50:52.813Z,99074.94
2022-07-29T05:53:20.855Z,99080.41
2022-07-29T05:55:48.580Z,99084.47
2022-07-29T05:58:15.137Z,99077.81
2022-07-29T06:00:43.000Z,99083.81
2022-07-29T06:03:09.456Z,99081.09
2022-07-29T06:05:36.016Z,99082.34
2022-07-29T06:08:02.652Z,99086.03
2022-07-29T06:10:29.172Z,99082.53
2022-07-29T06:12:55.983Z,99081.63
2022-07-29T06:15:22.515Z,99084.88
2022-07-29T06:18:00.354Z,99087.22
2022-07-29T06:20:30.756Z,99085.31
2022-07-29T06:22:57.667Z,99081.75
2022-07-29T06:25:24.436Z,99087.66
2022-07-29T06:27:50.966Z,99090.59
2022-07-29T06:30:17.537Z,99088.16
2022-07-29T06:32:43.980Z,99093.53
2022-07-29T06:35:37.726Z,99093.41
2022-07-29T06:37:59.592Z,99099.13
2022-07-29T06:40:45.576Z,99098.47
2022-07-29T06:43:12.238Z,99095.53
2022-07-29T06:45:42.189Z,99094.16
2022-07-29T06:48:09.220Z,99090.78
2022-07-29T06:50:35.685Z,99094.88
2022-07-29T06:53:02.163Z,99098.94
2022-07-29T06:55:28.749Z,99093.69
2022-07-29T06:57:55.198Z,99092.66
2022-07-29T07:00:21.795Z,99093.06
2022-07-29T07:02:48.875Z,99094.00
2022-07-29T07:05:15.433Z,99098.81
2022-07-29T07:07:41.902Z,99102.66
2022-07-29T07:10:08.744Z,99100.25
2022-07-29T07:12:35.168Z,99093.75
2022-07-29T07:15:01.782Z,99097.69
2022-07-29T07:17:28.273Z,99097.50
2022-07-29T07:19:54.687Z,99091.50
2022-07-29T07:22:21.220Z,99094.19
2022-07-29T07:24:47.721Z,99096.50
2022-07-29T07:27:14.251Z,99099.78
2022-07-29T07:29:42.102Z,99090.38
2022-07-29T07:32:11.033Z,99103.88
2022-07-29T07:34:38.886Z,99097.88
2022-07-29T07:37:06.182Z,99100.69
2022-07-29T07:39:32.771Z,99096.22
2022-07-29T07:41:59.367Z,99094.50
2022-07-29T07:44:25.822Z,99100.91
2022-07-29T07:46:52.397Z,99095.44
2022-07-29T07:49:19.731Z,99097.19
2022-07-29T07:51:50.697Z,99099.00
2022-07-29T07:54:18.143Z,99103.94
2022-07-29T07:56:45.185Z,99098.34
2022-07-29T07:59:11.637Z,99101.59
2022-07-29T08:01:48.422Z,99092.81
2022-07-29T08:04:27.477Z,99094.41
2022-07-29T08:06:57.765Z,99093.09
2022-07-29T08:09:30.386Z,99099.84
2022-07-29T08:11:58.586Z,99098.81
2022-07-29T08:14:25.133Z,99099.31
2022-07-29T08:16:52.324Z,99106.63
2022-07-29T08:19:19.106Z,99104.13
2022-07-29T08:21:45.549Z,99100.69
2022-07-29T08:24:30.603Z,99099.03
2022-07-29T08:26:57.105Z,99104.28
2022-07-29T08:29:23.645Z,99102.22
2022-07-29T08:31:50.367Z,99095.59
2022-07-29T08:34:17.112Z,99099.56
2022-07-29T08:36:43.559Z,99091.81
2022-07-29T08:39:10.213Z,99090.03
2022-07-29T08:41:36.670Z,99096.00
2022-07-29T08:44:03.281Z,99093.75
2022-07-29T08:46:29.768Z,99094.81
2022-07-29T08:48:56.480Z,99102.38
2022-07-29T08:51:23.325Z,99096.66
2022-07-29T08:53:51.027Z,99095.66
2022-07-29T08:56:19.094Z,99096.53
2022-07-29T08:58:52.033Z,99101.13
2022-07-29T09:01:36.511Z,99103.97
2022-07-29T09:04:10.653Z,99091.41
2022-07-29T09:06:39.475Z,99090.44
2022-07-29T09:09:06.346Z,99097.31
2022-07-29T09:11:33.499Z,99085.94
2022-07-29T09:14:00.346Z,99095.97
2022-07-29T09:16:50.971Z,99097.69
2022-07-29T09:19:26.402Z,99098.25
2022-07-29T09:21:59.370Z,99093.31
2022-07-29T09:24:40.501Z,99095.81
2022-07-29T09:27:19.940Z,99090.09
2022-07-29T09:29:46.584Z,99095.72
2022-07-29T09:32:13.348Z,99088.44
2022-07-29T09:34:39.819Z,99091.06
2022-07-29T09:37:06.435Z,99094.31
2022-07-29T09:39:49.205Z,99094.72
2022-07-29T09:42:29.294Z,99089.59
2022-07-29T09:44:55.768Z,99093.06
2022-07-29T09:47:26.854Z,99084.72
2022-07-29T09:49:59.138Z,99096.63
2022-07-29T09:52:30.675Z,99093.59
2022-07-29T09:55:07.449Z,99084.53
2022-07-29T09:57:33.911Z,99090.44
2022-07-29T10:00:03.899Z,99082.38
2022-07-29T10:02:34.499Z,99083.69
2022-07-29T10:05:03.051Z,99092.28
2022-07-29T10:07:53.312Z,99085.66
2022-07-29T10:10:28.866Z,99088.84
2022-07-29T10:12:56.179Z,99088.38
2022-07-29T10:15:24.751Z,99083.97
2022-07-29T10:17:52.359Z,99086.25
2022-07-29T10:20:19.582Z,99084.94
2022-07-29T10:22:53.520Z,99079.16
2022-07-29T10:25:21.463Z,99071.88
2022-07-29T10:27:48.773Z,99078.19
2022-07-29T10:30:16.437Z,99077.91
2022-07-29T10:33:04.495Z,99075.84
2022-07-29T10:35:45.021Z,99082.59
2022-07-29T10:38:45.793Z,99083.34
2022-07-29T10:41:55.415Z,99079.28
2022-07-29T10:44:24.557Z,99088.84
2022-07-29T10:46:52.251Z,99077.59
2022-07-29T10:49:20.200Z,99078.72
2022-07-29T10:52:03.644Z,99072.00
2022-07-29T10:54:48.435Z,99070.94
2022-07-29T10:57:53.284Z,99057.63
2022-07-29T11:00:12.654Z,99060.50
2022-07-29T11:02:45.343Z,99067.00
2022-07-29T11:05:13.610Z,99071.38
2022-07-29T11:08:02.338Z,99069.53
2022-07-29T11:10:31.308Z,99062.53
2022-07-29T11:12:59.103Z,99066.38
2022-07-29T11:15:25.654Z,99064.47
2022-07-29T11:17:55.187Z,99061.53
2022-07-29T11:20:38.719Z,99056.50
2022-07-29T11:23:36.486Z,99055.00
2022-07-29T11:26:28.377Z,99059.91
2022-07-29T11:29:04.617Z,99064.78
2022-07-29T11:31:44.322Z,99061.38
2022-07-29T11:34:22.586Z,99064.22
2022-07-29T11:37:07.594Z,99072.44
2022-07-29T11:39:36.803Z,99062.84
2022-07-29T11:42:32.459Z,99071.19
2022-07-29T11:45:41.751Z,99075.91
2022-07-29T11:48:03.669Z,99080.25
2022-07-29T11:50:45.738Z,99072.19
2022-07-29T11:53:15.115Z,99072.94
2022-07-29T11:55:51.018Z,99064.00
2022-07-29T12:01:14.981Z,99063.44
2022-07-29T12:03:43.632Z,99060.53
2022-07-29T12:06:14.904Z,99056.13
2022-07-29T12:08:46.013Z,99064.75
2022-07-29T12:11:22.503Z,99065.09
2022-07-29T12:13:51.488Z,99066.50
2022-07-29T12:16:26.134Z,99056.13
2022-07-29T12:19:02.097Z,99057.06
2022-07-29T12:21:30.207Z,99062.19
2022-07-29T12:24:03.348Z,99064.34
2022-07-29T12:26:34.132Z,99061.94
2022-07-29T12:29:03.381Z,99060.19
2022-07-29T12:31:42.202Z,99067.91
2022-07-29T12:34:16.410Z,99060.41
2022-07-29T12:36:43.803Z,99061.28
2022-07-29T12:39:11.542Z,99056.97
2022-07-29T12:41:38.469Z,99058.63
2022-07-29T12:44:07.982Z,99060.41
2022-07-29T12:46:34.610Z,99059.38
2022-07-29T12:49:01.240Z,99071.16
2022-07-29T12:51:34.672Z,99058.78
2022-07-29T12:54:11.691Z,99068.72
2022-07-29T12:56:43.693Z,99061.88
2022-07-29T12:59:14.521Z,99067.06
2022-07-29T13:01:41.137Z,99066.41
2022-07-29T13:04:07.714Z,99065.09
2022-07-29T13:06:49.674Z,99072.34
2022-07-29T13:09:20.110Z,99063.25
2022-07-29T13:11:51.028Z,99058.50
2022-07-29T13:14:38.571Z,99058.50
2022-07-29T13:17:13.426Z,99070.28
2022-07-29T13:19:54.244Z,99071.03
2022-07-29T13:22:36.644Z,99059.44
2022-07-29T13:25:03.874Z,99066.91
2022-07-29T13:27:33.480Z,99059.81
2022-07-29T13:30:01.746Z,99065.88
2022-07-29T13:32:30.418Z,99072.59
2022-07-29T13:34:58.564Z,99069.75
2022-07-29T13:37:25.711Z,99080.63
2022-07-29T13:39:58.064Z,99075.06
2022-07-29T13:42:27.742Z,99068.94
2022-07-29T13:44:56.462Z,99065.91
2022-07-29T13:47:35.072Z,99062.97
2022-07-29T13:50:02.331Z,99066.03
2022-07-29T13:52:29.280Z,99052.50
2022-07-29T13:55:00.582Z,99064.38
2022-07-29T13:57:40.664Z,99057.91
2022-07-29T14:00:13.955Z,99053.50
2022-07-29T14:02:43.734Z,99051.63
2022-07-29T14:05:11.116Z,99038.56
2022-07-29T14:07:39.859Z,99038.38
2022-07-29T14:10:07.242Z,99045.03
2022-07-29T14:12:33.918Z,99046.66
2022-07-29T14:15:00.418Z,99045.66
2022-07-29T14:17:27.131Z,99029.16
2022-07-29T14:19:58.257Z,99042.47
2022-07-29T14:22:26.960Z,99042.31
2022-07-29T14:24:55.489Z,99040.50
2022-07-29T14:27:37.685Z,99042.63
2022-07-29T14:30:08.167Z,99033.16
2022-07-29T14:32:34.693Z,99029.03
2022-07-29T14:35:01.181Z,99029.66
2022-07-29T14:37:27.790Z,99032.59
2022-07-29T14:40:06.532Z,99020.63
2022-07-29T14:42:33.137Z,99043.63
2022-07-29T14:44:59.730Z,99040.09
2022-07-29T14:47:30.784Z,99031.06
2022-07-29T14:49:57.364Z,99028.06
2022-07-29T14:52:23.885Z,99024.53
2022-07-29T14:54:50.441Z,99027.06
2022-07-29T14:57:17.411Z,99030.53
2022-07-29T14:59:43.933Z,99028.22
2022-07-29T15:02:10.934Z,99020.44
2022-07-29T15:04:55.893Z,99031.72
2022-07-29T15:07:48.206Z,99029.28
2022-07-29T15:10:15.681Z,99037.06
2022-07-29T15:12:42.276Z,99027.31
2022-07-29T15:15:09.832Z,99032.31
2022-07-29T15:17:36.560Z,99029.22
2022-07-29T15:20:04.034Z,99028.44
2022-07-29T15:22:30.567Z,99023.28
2022-07-29T15:24:57.293Z,99035.13
2022-07-29T15:27:23.861Z,99027.84
2022-07-29T15:29:50.496Z,99027.78
2022-07-29T15:32:19.838Z,99031.53
2022-07-29T15:34:46.541Z,99029.38
2022-07-29T15:37:13.071Z,99023.66
2022-07-29T15:39:39.872Z,99023.25
2022-07-29T15:42:06.674Z,99019.56
2022-07-29T15:44:33.348Z,99032.44
2022-07-29T15:47:08.412Z,99027.00
2022-07-29T15:49:47.402Z,99027.88
2022-07-29T15:52:26.876Z,99033.81
2022-07-29T15:54:59.055Z,99033.19
2022-07-29T15:57:26.049Z,99026.91
2022-07-29T15:59:53.005Z,99018.28
2022-07-29T16:02:19.866Z,99022.09
2022-07-29T16:04:47.227Z,99018.91
2022-07-29T16:07:14.310Z,99024.22
2022-07-29T16:09:41.263Z,99023.50
2022-07-29T16:12:14.736Z,99025.47
2022-07-29T16:14:43.355Z,99020.75
2022-07-29T16:17:14.249Z,99023.16
2022-07-29T16:19:41.934Z,99023.47
2022-07-29T16:22:08.440Z,99022.06
2022-07-29T16:24:34.970Z,99020.84
2022-07-29T16:27:02.067Z,99027.84
2022-07-29T16:29:29.083Z,99024.53
2022-07-29T16:31:55.660Z,99025.53
2022-07-29T16:34:22.256Z,99021.19
2022-07-29T16:36:48.752Z,99030.06
2022-07-29T16:39:15.530Z,99029.38
2022-07-29T16:41:42.293Z,99032.91
2022-07-29T16:44:08.756Z,99037.00
2022-07-29T16:46:37.410Z,99042.31
2022-07-29T16:49:05.661Z,99040.03
2022-07-29T16:51:32.675Z,99045.88
2022-07-29T16:53:59.214Z,99047.22
2022-07-29T16:56:25.742Z,99048.69
2022-07-29T16:58:52.206Z,99045.28
2022-07-29T17:01:18.859Z,99050.00
2022-07-29T17:04:03.866Z,99050.78
2022-07-29T17:06:30.451Z,99045.78
2022-07-29T17:08:57.124Z,99044.03
2022-07-29T17:11:53.270Z,99053.03
2022-07-29T17:14:10.646Z,99055.16
2022-07-29T17:16:37.199Z,99051.97
2022-07-29T17:19:03.732Z,99059.00
2022-07-29T17:21:30.268Z,99052.38
2022-07-29T17:23:58.713Z,99067.50
2022-07-29T17:26:26.830Z,99063.53
2022-07-29T17:28:55.067Z,99073.84
2022-07-29T17:31:21.849Z,99061.81
2022-07-29T17:33:48.548Z,99073.69
2022-07-29T17:36:24.007Z,99067.63
2022-07-29T17:38:51.617Z,99071.03
2022-07-29T17:41:18.381Z,99070.19
2022-07-29T17:43:44.980Z,99075.47
2022-07-29T17:46:11.551Z,99082.66
2022-07-29T17:48:38.211Z,99074.88
2022-07-29T17:51:04.804Z,99079.00
2022-07-29T17:53:31.402Z,99079.34
2022-07-29T17:55:58.685Z,99085.34
2022-07-29T17:58:27.768Z,99081.09
2022-07-29T18:00:54.288Z,99086.75
2022-07-29T18:03:21.259Z,99084.28
2022-07-29T18:05:51.516Z,99092.19
2022-07-29T18:08:18.321Z,99100.41
2022-07-29T18:10:45.981Z,99103.47
2022-07-29T18:13:12.948Z,99099.00
2022-07-29T18:15:40.624Z,99109.88
2022-07-29T18:18:07.637Z,99117.25
2022-07-29T18:20:34.511Z,99116.41
2022-07-29T18:23:01.348Z,99122.72
2022-07-29T18:25:28.927Z,99131.69
2022-07-29T18:27:59.992Z,99130.06
2022-07-29T18:30:27.390Z,99138.94
2022-07-29T18:33:19.144Z,99138.19
2022-07-29T18:35:40.820Z,99151.06
2022-07-29T18:38:07.341Z,99145.91
2022-07-29T18:40:34.015Z,99146.94
2022-07-29T18:43:00.585Z,99150.34
2022-07-29T18:45:28.572Z,99154.91
2022-07-29T18:47:56.351Z,99156.63
2022-07-29T18:50:28.944Z,99168.41
2022-07-29T18:52:58.692Z,99160.53
2022-07-29T18:55:26.011Z,99173.28
2022-07-29T18:57:57.465Z,99185.19
2022-07-29T19:00:25.519Z,99190.94
2022-07-29T19:02:53.094Z,99189.19
2022-07-29T19:05:21.268Z,99192.53
2022-07-29T19:07:48.468Z,99197.91
2022-07-29T19:10:16.037Z,99198.25
2022-07-29T19:12:45.622Z,99202.56
2022-07-29T19:15:20.310Z,99208.41
2022-07-29T19:17:49.009Z,99204.06
2022-07-29T19:20:18.483Z,99204.19
2022-07-29T19:22:49.253Z,99212.03
2022-07-29T19:25:19.558Z,99227.19
2022-07-29T19:27:51.282Z,99214.72
2022-07-29T19:30:18.890Z,99228.78
2022-07-29T19:32:48.746Z,99235.94
2022-07-29T19:35:25.446Z,99240.19
2022-07-29T19:37:59.015Z,99239.50
2022-07-29T19:40:26.616Z,99244.81
2022-07-29T19:42:54.302Z,99248.25
2022-07-29T19:45:25.994Z,99258.88
2022-07-29T19:47:57.718Z,99260.63
2022-07-29T19:50:27.649Z,99270.34
2022-07-29T19:52:56.346Z,99268.53
2022-07-29T19:55:23.605Z,99272.03
2022-07-29T19:57:51.070Z,99276.63
2022-07-29T20:00:20.301Z,99281.09
2022-07-29T20:02:48.303Z,99287.16
2022-07-29T20:05:17.841Z,99283.63
2022-07-29T20:07:44.613Z,99292.41
2022-07-29T20:10:11.379Z,99287.31
2022-07-29T20:12:38.856Z,99291.75
2022-07-29T20:15:10.637Z,99291.84
2022-07-29T20:17:45.691Z,99290.25
2022-07-29T20:20:15.661Z,99289.31
2022-07-29T20:22:42.991Z,99300.69
2022-07-29T20:25:13.521Z,99292.03
2022-07-29T20:27:40.653Z,99302.47
2022-07-29T20:30:08.335Z,99303.59
2022-07-29T20:32:35.639Z,99309.72
2022-07-29T20:35:02.347Z,99303.69
2022-07-29T20:37:29.148Z,99310.84
2022-07-29T20:39:55.880Z,99317.00
2022-07-29T20:42:22.593Z,99310.88
2022-07-29T20:44:54.044Z,99310.84
2022-07-29T20:47:22.453Z,99315.31
2022-07-29T20:49:49.132Z,99321.44
2022-07-29T20:52:16.551Z,99319.72
2022-07-29T20:54:43.294Z,99322.34
2022-07-29T20:57:09.792Z,99327.56
2022-07-29T20:59:36.376Z,99333.75
2022-07-29T21:02:03.357Z,99335.50
2022-07-29T21:04:30.753Z,99335.50
2022-07-29T21:06:59.389Z,99326.75
2022-07-29T21:09:26.208Z,99334.63
2022-07-29T21:11:52.756Z,99336.38
2022-07-29T21:14:42.397Z,99332.88
2022-07-29T21:17:09.005Z,99343.34
2022-07-29T21:19:35.558Z,99342.47
2022-07-29T21:22:02.211Z,99347.66
2022-07-29T21:24:28.827Z,99349.38
2022-07-29T21:27:20.579Z,99345.06
2022-07-29T21:29:47.557Z,99343.28
2022-07-29T21:32:29.459Z,99355.47
2022-07-29T21:34:57.374Z,99356.31
2022-07-29T21:37:23.988Z,99360.63
2022-07-29T21:39:50.554Z,99371.00
2022-07-29T21:42:19.051Z,99366.63
2022-07-29T21:44:45.711Z,99367.44
2022-07-29T21:47:12.253Z,99367.44
2022-07-29T21:49:39.213Z,99369.25
2022-07-29T21:52:06.325Z,99371.84
2022-07-29T21:54:34.616Z,99376.25
2022-07-29T21:57:01.267Z,99377.06
2022-07-29T21:59:27.986Z,99377.88
2022-07-29T22:01:54.917Z,99373.34
2022-07-29T22:04:24.793Z,99381.06
2022-07-29T22:06:51.580Z,99388.75
2022-07-29T22:09:18.336Z,99393.09
2022-07-29T22:11:45.131Z,99392.16
2022-07-29T22:14:15.132Z,99395.94
2022-07-29T22:16:41.875Z,99394.06
2022-07-29T22:19:08.655Z,99395.66
2022-07-29T22:21:35.393Z,99400.84
2022-07-29T22:24:02.140Z,99397.22
2022-07-29T22:26:28.828Z,99399.09
2022-07-29T22:28:55.508Z,99409.47
2022-07-29T22:31:22.222Z,99406.47
2022-07-29T22:33:54.068Z,99407.31
2022-07-29T22:36:20.739Z,99408.06
2022-07-29T22:38:51.754Z,99415.91
2022-07-29T22:41:18.716Z,99411.75
2022-07-29T22:43:47.573Z,99419.81
2022-07-29T22:46:14.357Z,99422.88
2022-07-29T22:48:41.109Z,99419.47
2022-07-29T22:51:07.919Z,99415.75
2022-07-29T22:53:36.289Z,99416.59
2022-07-29T22:56:05.893Z,99426.38
2022-07-29T22:58:32.742Z,99415.44
2022-07-29T23:01:02.483Z,99421.56
2022-07-29T23:03:29.280Z,99417.06
2022-07-29T23:05:56.209Z,99423.34
2022-07-29T23:08:22.818Z,99419.09
2022-07-29T23:10:49.659Z,99421.28
2022-07-29T23:13:16.397Z,99422.13
2022-07-29T23:15:43.094Z,99416.25
2022-07-29T23:18:09.812Z,99419.28
2022-07-29T23:20:36.931Z,99410.69
2022-07-29T23:23:03.652Z,99410.94
2022-07-29T23:25:30.294Z,99401.06
2022-07-29T23:28:00.179Z,99407.81
2022-07-29T23:30:27.276Z,99398.38
2022-07-29T23:32:55.083Z,99407.59
2022-07-29T23:35:21.980Z,99396.44
2022-07-29T23:37:48.650Z,99403.13
2022-07-29T23:40:15.415Z,99398.53
2022-07-29T23:42:42.713Z,99399.47
2022-07-29T23:45:10.516Z,99395.47
2022-07-29T23:47:37.087Z,99396.88
2022-07-29T23:50:04.994Z,99391.75
2022-07-29T23:52:31.487Z,99389.53
2022-07-29T23:55:36.907Z,99391.09
2022-07-29T23:57:44.492Z,99388.19
